11:25
Airports
History
Links
Donate
Help keep this website running!
PayPal
Bitcoin
This page is community maintained. The information is intended for PC simulator navigation or reference.
Always use approved charts for navigation.
SWVE
Fazenda Vista Alegre
Fazenda Vista Alegre (SWVE)
Bujari, Acre, Brazil (69923)
4
Lat/Lng:9° 45' 30" S / 68° 2' 45" W
-9.758333 / -68.045833
Elevation:666'ft / 203mMSL
ID / ICAO:SWVE
Runways:1
Longest:07-25
Grass 596m / 1,954ft
Nearby Weather11:00 GMT 2018-02-20
Nearby weather at SBRB, Presidente Medici located 12.9 nautical miles from SWVE
Altimeter: 29.85
Visibility: 6.2 statute miles
Wind: 3 knots (from 320°)
Temp: 23°c / 73°f
Humidity: 94.1%

METAR: SBRB 201100Z 32003KT 9999 SCT007 BKN050 23/22 Q1011

(Powered by phpweather)
Runway 07 / 25
Dimensions:595.5 x 18m 1954' x 59'ft
Surface:Grass
Runway 07 [A]Runway 25 [B]
Heading:061°TH 241°TH
Lat:
Lng:
9° 45' 34.67"S
68° 2' 53.67"W
9° 45' 25.33"S
68° 2' 36.33"W
User Notes and Comments
9° 45' 30" S / 68° 2' 45" W
Distance To
Airport ID:
Nearby Airports
(C) Presidente Medici 12.9 NM
SBRB ( WX ) SE 126°
4 Fazenda Agua Limpa 40.8 NM
SDNQ ESE 111°
4 Fazenda Campina 59.0 NM
SWKB NE 43°
(C) Xapuri 69.3 NM
SWXU SSW 205°
(C) Novo Campo 81.1 NM
SWNK NE 38°
4 Seringal Nova Olinda 82.9 NM
SWSX WSW 253°
4 Fazenda Tempero Seco 96.4 NM
SJQH ENE 74°
VFR Chart
Flight Planning at SkyVector.com